createdAt,value
2023-03-27T00:00:58.341Z,979.60
2023-03-27T00:01:58.254Z,979.58
2023-03-27T00:02:58.258Z,979.65
2023-03-27T00:03:58.266Z,979.69
2023-03-27T00:04:58.233Z,979.69
2023-03-27T00:05:58.188Z,979.66
2023-03-27T00:06:58.173Z,979.70
2023-03-27T00:07:58.168Z,979.71
2023-03-27T00:08:58.252Z,979.73
2023-03-27T00:09:58.156Z,979.77
2023-03-27T00:10:58.397Z,979.87
2023-03-27T00:11:58.136Z,979.84
2023-03-27T00:12:58.111Z,979.87
2023-03-27T00:13:58.072Z,979.88
2023-03-27T00:14:58.138Z,979.86
2023-03-27T00:15:58.129Z,979.97
2023-03-27T00:16:58.102Z,979.97
2023-03-27T00:17:58.070Z,979.99
2023-03-27T00:18:58.041Z,979.97
2023-03-27T00:19:58.294Z,979.97
2023-03-27T00:20:58.133Z,980.01
2023-03-27T00:21:58.029Z,980.01
2023-03-27T00:22:58.058Z,980.02
2023-03-27T00:23:57.975Z,980.06
2023-03-27T00:24:58.026Z,980.04
2023-03-27T00:25:57.990Z,980.04
2023-03-27T00:26:58.052Z,980.06
2023-03-27T00:27:58.914Z,980.04
2023-03-27T00:28:58.022Z,980.08
2023-03-27T00:29:58.354Z,980.05
2023-03-27T00:30:58.255Z,980.08
2023-03-27T00:31:57.889Z,980.08
2023-03-27T00:32:57.942Z,980.12
2023-03-27T00:33:57.892Z,980.07
2023-03-27T00:34:58.547Z,980.02
2023-03-27T00:35:57.966Z,980.08
2023-03-27T00:36:58.544Z,980.07
2023-03-27T00:37:57.844Z,980.07
2023-03-27T00:38:57.840Z,980.03
2023-03-27T00:39:57.836Z,980.04
2023-03-27T00:40:58.564Z,980.09
2023-03-27T00:41:57.800Z,980.12
2023-03-27T00:42:57.806Z,980.09
2023-03-27T00:43:57.810Z,980.08
2023-03-27T00:44:57.790Z,980.08
2023-03-27T00:45:57.897Z,980.14
2023-03-27T00:46:57.770Z,980.09
2023-03-27T00:47:57.787Z,980.20
2023-03-27T00:48:57.720Z,980.18
2023-03-27T00:49:57.760Z,980.17
2023-03-27T00:50:57.875Z,980.19
2023-03-27T00:51:57.878Z,980.23
2023-03-27T00:52:57.686Z,980.22
2023-03-27T00:53:57.695Z,980.25
2023-03-27T00:54:57.661Z,980.25
2023-03-27T00:55:57.721Z,980.27
2023-03-27T00:56:57.747Z,980.26
2023-03-27T00:57:57.678Z,980.25
2023-03-27T00:58:57.643Z,980.28
2023-03-27T00:59:57.680Z,980.29
2023-03-27T01:00:57.881Z,980.31
2023-03-27T01:01:57.684Z,980.31
2023-03-27T01:02:57.730Z,980.29
2023-03-27T01:03:57.605Z,980.28
2023-03-27T01:04:57.580Z,980.27
2023-03-27T01:05:57.553Z,980.32
2023-03-27T01:06:57.535Z,980.27
2023-03-27T01:08:01.063Z,980.26
2023-03-27T01:08:57.522Z,980.25
2023-03-27T01:09:57.505Z,980.29
2023-03-27T01:10:57.798Z,980.26
2023-03-27T01:11:57.534Z,980.33
2023-03-27T01:12:57.787Z,980.32
2023-03-27T01:13:57.488Z,980.39
2023-03-27T01:14:57.444Z,980.46
2023-03-27T01:16:54.272Z,980.49
2023-03-27T01:17:54.237Z,980.58
2023-03-27T01:18:54.248Z,980.54
2023-03-27T01:19:54.245Z,980.56
2023-03-27T01:20:54.272Z,980.61
2023-03-27T01:21:54.185Z,980.69
2023-03-27T01:22:54.163Z,980.67
2023-03-27T01:23:59.734Z,980.64
2023-03-27T01:24:55.164Z,980.74
2023-03-27T01:25:54.146Z,980.73
2023-03-27T01:26:54.149Z,980.73
2023-03-27T01:27:54.122Z,980.78
2023-03-27T01:28:54.103Z,980.71
2023-03-27T01:29:54.366Z,980.86
2023-03-27T01:30:54.360Z,980.83
2023-03-27T01:31:54.158Z,980.86
2023-03-27T01:32:54.116Z,980.90
2023-03-27T01:33:54.081Z,980.90
2023-03-27T01:35:01.798Z,980.89
2023-03-27T01:35:55.179Z,980.97
2023-03-27T01:36:54.028Z,980.97
2023-03-27T01:37:54.022Z,981.01
2023-03-27T01:38:53.998Z,981.00
2023-03-27T01:39:54.012Z,981.04
2023-03-27T01:40:54.046Z,981.03
2023-03-27T01:41:54.005Z,981.10
2023-03-27T01:42:53.960Z,981.06
2023-03-27T01:43:53.962Z,981.13
2023-03-27T01:44:53.933Z,981.09
2023-03-27T01:45:53.980Z,981.11
2023-03-27T01:46:53.954Z,981.17
2023-03-27T01:47:53.945Z,981.18
2023-03-27T01:48:53.885Z,981.16
2023-03-27T01:49:53.921Z,981.16
2023-03-27T01:50:54.701Z,981.20
2023-03-27T01:51:53.862Z,981.22
2023-03-27T01:52:53.860Z,981.34
2023-03-27T01:53:53.864Z,981.26
2023-03-27T01:54:53.836Z,981.33
2023-03-27T01:55:53.828Z,981.38
2023-03-27T01:56:54.027Z,981.36
2023-03-27T01:57:54.353Z,981.43
2023-03-27T01:58:53.786Z,981.44
2023-03-27T01:59:53.804Z,981.46
2023-03-27T02:00:53.820Z,981.46
2023-03-27T02:01:53.796Z,981.48
2023-03-27T02:02:53.792Z,981.50
2023-03-27T02:03:53.745Z,981.55
2023-03-27T02:04:53.748Z,981.54
2023-03-27T02:05:53.719Z,981.60
2023-03-27T02:06:53.726Z,981.62
2023-03-27T02:07:53.758Z,981.62
2023-03-27T02:08:53.676Z,981.66
2023-03-27T02:09:53.679Z,981.68
2023-03-27T02:10:53.753Z,981.72
2023-03-27T02:11:53.722Z,981.75
2023-03-27T02:12:53.640Z,981.78
2023-03-27T02:13:53.667Z,981.81
2023-03-27T02:14:54.284Z,981.76
2023-03-27T02:15:53.688Z,981.85
2023-03-27T02:16:53.616Z,981.85
2023-03-27T02:17:53.842Z,981.82
2023-03-27T02:18:53.574Z,981.93
2023-03-27T02:19:53.583Z,981.93
2023-03-27T02:20:53.857Z,981.96
2023-03-27T02:21:53.563Z,981.94
2023-03-27T02:22:53.540Z,982.04
2023-03-27T02:23:53.576Z,982.01
2023-03-27T02:24:53.517Z,982.01
2023-03-27T02:25:53.524Z,981.97
2023-03-27T02:26:53.579Z,982.06
2023-03-27T02:27:53.500Z,982.10
2023-03-27T02:28:53.486Z,982.14
2023-03-27T02:29:53.537Z,982.09
2023-03-27T02:31:06.423Z,982.21
2023-03-27T02:31:54.482Z,982.17
2023-03-27T02:32:53.470Z,982.16
2023-03-27T02:33:53.432Z,982.25
2023-03-27T02:34:53.436Z,982.29
2023-03-27T02:35:53.501Z,982.27
2023-03-27T02:36:53.397Z,982.26
2023-03-27T02:37:53.406Z,982.34
2023-03-27T02:38:53.379Z,982.30
2023-03-27T02:39:53.373Z,982.31
2023-03-27T02:40:53.354Z,982.38
2023-03-27T02:41:53.415Z,982.34
2023-03-27T02:42:53.334Z,982.38
2023-03-27T02:43:53.341Z,982.43
2023-03-27T02:44:53.331Z,982.47
2023-03-27T02:45:53.391Z,982.48
2023-03-27T02:46:53.486Z,982.48
2023-03-27T02:47:53.350Z,982.49
2023-03-27T02:48:53.269Z,982.56
2023-03-27T02:49:53.261Z,982.53
2023-03-27T02:50:53.256Z,982.62
2023-03-27T02:51:53.267Z,982.55
2023-03-27T02:52:53.260Z,982.58
2023-03-27T02:53:53.248Z,982.59
2023-03-27T02:54:53.215Z,982.64
2023-03-27T02:55:53.215Z,982.66
2023-03-27T02:56:53.336Z,982.69
2023-03-27T02:57:53.326Z,982.71
2023-03-27T02:58:53.194Z,982.69
2023-03-27T02:59:53.214Z,982.71
2023-03-27T03:00:53.209Z,982.72
2023-03-27T03:01:53.179Z,982.76
2023-03-27T03:02:53.171Z,982.79
2023-03-27T03:03:53.146Z,982.77
2023-03-27T03:04:53.097Z,982.76
2023-03-27T03:05:53.148Z,982.81
2023-03-27T03:06:53.092Z,982.75
2023-03-27T03:07:53.089Z,982.83
2023-03-27T03:08:53.073Z,982.88
2023-03-27T03:09:54.760Z,982.90
2023-03-27T03:10:53.053Z,982.96
2023-03-27T03:11:53.062Z,982.92
2023-03-27T03:12:53.037Z,983.09
2023-03-27T03:13:53.043Z,983.06
2023-03-27T03:14:53.004Z,983.14
2023-03-27T03:15:53.020Z,983.14
2023-03-27T03:16:53.036Z,983.26
2023-03-27T03:17:53.036Z,983.30
2023-03-27T03:18:52.992Z,983.36
2023-03-27T03:19:52.957Z,983.37
2023-03-27T03:20:52.968Z,983.36
2023-03-27T03:21:52.992Z,983.39
2023-03-27T03:22:52.920Z,983.44
2023-03-27T03:23:57.505Z,983.48
2023-03-27T03:24:53.912Z,983.52
2023-03-27T03:25:52.926Z,983.56
2023-03-27T03:26:52.987Z,983.53
2023-03-27T03:27:52.872Z,983.60
2023-03-27T03:29:00.627Z,983.60
2023-03-27T03:29:53.869Z,983.64
2023-03-27T03:30:52.857Z,983.69
2023-03-27T03:31:52.859Z,983.73
2023-03-27T03:32:52.852Z,983.71
2023-03-27T03:33:52.875Z,983.69
2023-03-27T03:34:52.812Z,983.75
2023-03-27T03:35:52.828Z,983.74
2023-03-27T03:36:52.795Z,983.80
2023-03-27T03:37:52.811Z,983.82
2023-03-27T03:38:52.748Z,983.83
2023-03-27T03:39:52.811Z,983.88
2023-03-27T03:40:52.739Z,983.96
2023-03-27T03:41:52.847Z,983.96
2023-03-27T03:42:53.686Z,984.01
2023-03-27T03:43:52.734Z,984.03
2023-03-27T03:44:52.709Z,984.08
2023-03-27T03:45:52.760Z,984.18
2023-03-27T03:46:52.688Z,984.13
2023-03-27T03:47:52.755Z,984.18
2023-03-27T03:48:52.673Z,984.21
2023-03-27T03:49:52.662Z,984.20
2023-03-27T03:50:52.636Z,984.24
2023-03-27T03:52:03.438Z,984.26
2023-03-27T03:52:53.622Z,984.26
2023-03-27T03:53:52.608Z,984.31
2023-03-27T03:54:52.590Z,984.38
2023-03-27T03:55:52.620Z,984.38
2023-03-27T03:56:52.979Z,984.37
2023-03-27T03:57:52.577Z,984.38
2023-03-27T03:58:52.569Z,984.44
2023-03-27T03:59:52.542Z,984.52
2023-03-27T04:00:52.550Z,984.51
2023-03-27T04:01:52.594Z,984.55
2023-03-27T04:02:52.601Z,984.54
2023-03-27T04:03:52.568Z,984.62
2023-03-27T04:04:52.485Z,984.65
2023-03-27T04:05:52.490Z,984.72
2023-03-27T04:06:52.478Z,984.73
2023-03-27T04:07:52.480Z,984.69
2023-03-27T04:08:52.525Z,984.81
2023-03-27T04:09:52.447Z,984.79
2023-03-27T04:10:52.410Z,984.84
2023-03-27T04:11:52.433Z,984.81
2023-03-27T04:12:52.402Z,984.80
2023-03-27T04:13:52.424Z,984.84
2023-03-27T04:14:52.370Z,984.85
2023-03-27T04:15:52.380Z,984.94
2023-03-27T04:16:52.358Z,984.94
2023-03-27T04:17:52.467Z,984.92
2023-03-27T04:18:52.428Z,984.92
2023-03-27T04:19:52.851Z,985.04
2023-03-27T04:20:52.312Z,985.00
2023-03-27T04:21:52.323Z,985.04
2023-03-27T04:22:54.223Z,985.08
2023-03-27T04:23:52.310Z,985.07
2023-03-27T04:24:52.301Z,985.15
2023-03-27T04:25:52.395Z,985.17
2023-03-27T04:26:52.270Z,985.17
2023-03-27T04:27:52.319Z,985.16
2023-03-27T04:28:52.260Z,985.28
2023-03-27T04:29:52.220Z,985.23
2023-03-27T04:30:52.229Z,985.21
2023-03-27T04:31:52.275Z,985.25
2023-03-27T04:32:52.193Z,985.29
2023-03-27T04:33:52.552Z,985.25
2023-03-27T04:34:52.337Z,985.27
2023-03-27T04:36:06.031Z,985.22
2023-03-27T04:36:53.149Z,985.26
2023-03-27T04:37:52.146Z,985.31
2023-03-27T04:38:52.135Z,985.35
2023-03-27T04:39:52.136Z,985.36
2023-03-27T04:40:52.128Z,985.39
2023-03-27T04:41:52.099Z,985.42
2023-03-27T04:42:52.108Z,985.45
2023-03-27T04:43:52.101Z,985.48
2023-03-27T04:44:52.069Z,985.49
2023-03-27T04:45:52.082Z,985.53
2023-03-27T04:46:52.345Z,985.57
2023-03-27T04:47:52.051Z,985.55
2023-03-27T04:48:52.063Z,985.63
2023-03-27T04:49:52.034Z,985.60
2023-03-27T04:50:52.001Z,985.69
2023-03-27T04:51:52.021Z,985.75
2023-03-27T04:52:52.044Z,985.70
2023-03-27T04:53:52.000Z,985.77
2023-03-27T04:54:51.961Z,985.79
2023-03-27T04:55:51.968Z,985.89
2023-03-27T04:56:52.078Z,985.87
2023-03-27T04:57:51.958Z,985.88
2023-03-27T04:58:53.762Z,985.90
2023-03-27T04:59:51.924Z,985.94
2023-03-27T05:00:51.928Z,985.94
2023-03-27T05:01:51.901Z,985.97
2023-03-27T05:02:51.928Z,986.04
2023-03-27T05:03:51.976Z,986.01
2023-03-27T05:04:51.942Z,986.08
2023-03-27T05:05:51.879Z,986.10
2023-03-27T05:06:51.893Z,986.12
2023-03-27T05:07:51.848Z,986.12
2023-03-27T05:08:51.848Z,986.17
2023-03-27T05:09:51.779Z,986.19
2023-03-27T05:10:51.810Z,986.22
2023-03-27T05:11:51.804Z,986.21
2023-03-27T05:12:51.762Z,986.26
2023-03-27T05:13:51.766Z,986.30
2023-03-27T05:14:53.422Z,986.35
2023-03-27T05:15:51.708Z,986.41
2023-03-27T05:16:51.740Z,986.39
2023-03-27T05:17:51.692Z,986.44
2023-03-27T05:18:51.666Z,986.45
2023-03-27T05:19:51.669Z,986.48
2023-03-27T05:20:51.640Z,986.48
2023-03-27T05:21:51.636Z,986.49
2023-03-27T05:22:51.620Z,986.54
2023-03-27T05:23:51.626Z,986.59
2023-03-27T05:24:51.583Z,986.57
2023-03-27T05:25:59.844Z,986.56
2023-03-27T05:26:52.637Z,986.55
2023-03-27T05:27:51.590Z,986.62
2023-03-27T05:28:51.917Z,986.58
2023-03-27T05:29:51.558Z,986.64
2023-03-27T05:30:51.648Z,986.63
2023-03-27T05:31:51.541Z,986.71
2023-03-27T05:32:51.531Z,986.70
2023-03-27T05:33:51.514Z,986.68
2023-03-27T05:34:51.914Z,986.76
2023-03-27T05:35:51.523Z,986.79
2023-03-27T05:36:51.476Z,986.84
2023-03-27T05:37:51.454Z,986.87
2023-03-27T05:38:51.463Z,986.93
2023-03-27T05:39:51.477Z,986.94
2023-03-27T05:40:51.503Z,987.02
2023-03-27T05:41:51.409Z,986.95
2023-03-27T05:42:51.425Z,987.01
2023-03-27T05:43:51.525Z,986.98
2023-03-27T05:44:51.384Z,987.02
2023-03-27T05:45:51.486Z,987.01
2023-03-27T05:46:51.373Z,987.07
2023-03-27T05:47:51.385Z,987.07
2023-03-27T05:48:51.356Z,987.06
2023-03-27T05:49:51.342Z,987.10
2023-03-27T05:50:51.882Z,987.12
2023-03-27T05:51:51.311Z,987.10
2023-03-27T05:52:51.326Z,987.14
2023-03-27T05:53:51.285Z,987.15
2023-03-27T05:54:51.295Z,987.18
2023-03-27T05:56:02.334Z,987.22
2023-03-27T05:56:52.442Z,987.26
2023-03-27T05:57:51.246Z,987.24
2023-03-27T05:58:51.533Z,987.26
2023-03-27T05:59:51.246Z,987.30
2023-03-27T06:00:51.227Z,987.27
2023-03-27T06:01:51.199Z,987.34
2023-03-27T06:02:51.269Z,987.40
2023-03-27T06:03:51.326Z,987.41
2023-03-27T06:04:51.193Z,987.44
2023-03-27T06:05:51.165Z,987.47
2023-03-27T06:06:51.175Z,987.44
2023-03-27T06:07:51.150Z,987.53
2023-03-27T06:08:51.366Z,987.54
2023-03-27T06:09:51.125Z,987.53
2023-03-27T06:10:51.136Z,987.52
2023-03-27T06:11:51.104Z,987.53
2023-03-27T06:12:51.109Z,987.55
2023-03-27T06:13:51.076Z,987.59
2023-03-27T06:14:51.125Z,987.64
2023-03-27T06:15:51.082Z,987.58
2023-03-27T06:17:47.848Z,987.65
2023-03-27T06:18:47.774Z,987.72
2023-03-27T06:19:47.759Z,987.67
2023-03-27T06:20:47.780Z,987.69
2023-03-27T06:21:47.734Z,987.75
2023-03-27T06:22:47.736Z,987.76
2023-03-27T06:23:47.735Z,987.80
2023-03-27T06:24:47.699Z,987.90
2023-03-27T06:25:47.727Z,987.90
2023-03-27T06:26:47.976Z,987.90
2023-03-27T06:27:47.707Z,987.89
2023-03-27T06:28:47.661Z,987.89
2023-03-27T06:29:47.690Z,987.91
2023-03-27T06:30:47.701Z,987.95
2023-03-27T06:31:47.638Z,987.99
2023-03-27T06:32:47.730Z,987.97
2023-03-27T06:33:47.622Z,988.08
2023-03-27T06:34:47.622Z,988.01
2023-03-27T06:35:53.276Z,988.07
2023-03-27T06:36:48.618Z,988.14
2023-03-27T06:37:50.271Z,988.13
2023-03-27T06:38:47.578Z,988.17
2023-03-27T06:39:47.585Z,988.18
2023-03-27T06:40:47.542Z,988.17
2023-03-27T06:41:47.554Z,988.19
2023-03-27T06:42:47.541Z,988.20
2023-03-27T06:43:47.536Z,988.28
2023-03-27T06:44:47.515Z,988.29
2023-03-27T06:45:47.502Z,988.34
2023-03-27T06:46:47.533Z,988.33
2023-03-27T06:47:53.701Z,988.33
2023-03-27T06:48:48.523Z,988.31
2023-03-27T06:49:47.463Z,988.32
2023-03-27T06:50:47.424Z,988.33
2023-03-27T06:51:47.446Z,988.38
2023-03-27T06:52:47.446Z,988.37
2023-03-27T06:53:47.940Z,988.26
2023-03-27T06:54:47.414Z,988.36
2023-03-27T06:55:47.407Z,988.31
2023-03-27T06:56:47.465Z,988.33
2023-03-27T06:57:47.399Z,988.38
2023-03-27T06:58:47.358Z,988.37
2023-03-27T06:59:48.422Z,988.41
2023-03-27T07:00:47.358Z,988.43
2023-03-27T07:01:47.376Z,988.51
2023-03-27T07:02:47.376Z,988.47
2023-03-27T07:03:47.312Z,988.53
2023-03-27T07:04:57.703Z,988.53
2023-03-27T07:05:48.450Z,988.62
2023-03-27T07:06:47.298Z,988.61
2023-03-27T07:07:49.281Z,988.70
2023-03-27T07:08:48.988Z,988.60
2023-03-27T07:09:47.248Z,988.65
2023-03-27T07:10:56.376Z,988.66
2023-03-27T07:11:48.266Z,988.71
2023-03-27T07:12:47.205Z,988.72
2023-03-27T07:13:47.214Z,988.78
2023-03-27T07:14:47.209Z,988.80
2023-03-27T07:15:47.183Z,988.68
2023-03-27T07:16:47.186Z,988.65
2023-03-27T07:17:48.902Z,988.85
2023-03-27T07:18:47.167Z,988.69
2023-03-27T07:19:47.153Z,988.73
2023-03-27T07:20:47.127Z,988.77
2023-03-27T07:21:47.157Z,988.79
2023-03-27T07:22:47.103Z,988.79
2023-03-27T07:23:47.103Z,988.84
2023-03-27T07:24:47.104Z,988.92
2023-03-27T07:25:47.101Z,988.87
2023-03-27T07:26:47.091Z,988.95
2023-03-27T07:27:47.370Z,988.91
2023-03-27T07:28:47.026Z,989.01
2023-03-27T07:29:47.068Z,989.06
2023-03-27T07:30:47.026Z,989.01
2023-03-27T07:31:57.678Z,989.04
2023-03-27T07:32:48.104Z,988.99
2023-03-27T07:33:47.093Z,989.05
2023-03-27T07:34:46.977Z,989.14
2023-03-27T07:35:47.673Z,989.20
2023-03-27T07:36:46.954Z,989.13
2023-03-27T07:37:46.971Z,989.13
2023-03-27T07:38:47.377Z,989.27
2023-03-27T07:39:46.958Z,989.23
2023-03-27T07:40:46.937Z,989.26
2023-03-27T07:41:46.920Z,989.31
2023-03-27T07:42:46.901Z,989.34
2023-03-27T07:43:46.896Z,989.29
2023-03-27T07:44:46.880Z,989.35
2023-03-27T07:45:46.988Z,989.34
2023-03-27T07:46:46.864Z,989.46
2023-03-27T07:47:46.892Z,989.43
2023-03-27T07:48:46.844Z,989.41
2023-03-27T07:49:46.855Z,989.45
2023-03-27T07:50:46.862Z,989.46
2023-03-27T07:51:46.859Z,989.48
2023-03-27T07:52:46.818Z,989.50
2023-03-27T07:53:46.843Z,989.51
2023-03-27T07:54:46.795Z,989.47
2023-03-27T07:55:48.491Z,989.59
2023-03-27T07:56:46.947Z,989.61
2023-03-27T07:57:59.951Z,989.56
2023-03-27T07:58:47.754Z,989.58
2023-03-27T07:59:46.898Z,989.59
2023-03-27T08:00:46.725Z,989.66
2023-03-27T08:01:46.730Z,989.65
2023-03-27T08:02:46.756Z,989.66
2023-03-27T08:03:46.797Z,989.69
2023-03-27T08:04:46.817Z,989.78
2023-03-27T08:05:48.452Z,989.73
2023-03-27T08:06:46.658Z,989.75
2023-03-27T08:07:46.716Z,989.71
2023-03-27T08:08:46.650Z,989.79
2023-03-27T08:09:46.713Z,989.77
2023-03-27T08:10:46.668Z,989.75
2023-03-27T08:11:46.661Z,989.74
2023-03-27T08:12:46.593Z,989.72
2023-03-27T08:13:46.640Z,989.73
2023-03-27T08:14:46.557Z,989.70
2023-03-27T08:15:47.011Z,989.77
2023-03-27T08:16:46.603Z,989.74
2023-03-27T08:17:46.684Z,989.78
2023-03-27T08:18:46.536Z,989.84
2023-03-27T08:19:46.575Z,989.78
2023-03-27T08:20:46.553Z,989.83
2023-03-27T08:21:46.552Z,989.84
2023-03-27T08:22:46.500Z,989.84
2023-03-27T08:23:46.537Z,989.87
2023-03-27T08:24:46.491Z,989.90
2023-03-27T08:25:46.885Z,989.93
2023-03-27T08:26:46.480Z,989.93
2023-03-27T08:27:46.442Z,989.97
2023-03-27T08:28:46.480Z,989.97
2023-03-27T08:29:46.433Z,990.04
2023-03-27T08:30:46.471Z,990.01
2023-03-27T08:31:46.434Z,989.97
2023-03-27T08:32:46.462Z,990.00
2023-03-27T08:33:46.397Z,990.04
2023-03-27T08:34:46.396Z,990.03
2023-03-27T08:35:46.962Z,990.05
2023-03-27T08:36:46.387Z,990.10
2023-03-27T08:37:46.374Z,990.07
2023-03-27T08:38:46.327Z,990.13
2023-03-27T08:39:46.340Z,990.08
2023-03-27T08:40:46.338Z,990.09
2023-03-27T08:41:46.306Z,990.07
2023-03-27T08:42:46.289Z,990.11
2023-03-27T08:43:46.306Z,990.17
2023-03-27T08:44:46.430Z,990.21
2023-03-27T08:45:46.250Z,990.17
2023-03-27T08:46:46.301Z,990.14
2023-03-27T08:47:46.265Z,990.19
2023-03-27T08:48:46.202Z,990.19
2023-03-27T08:49:46.283Z,990.22
2023-03-27T08:50:46.205Z,990.29
2023-03-27T08:51:46.233Z,990.24
2023-03-27T08:52:46.171Z,990.26
2023-03-27T08:53:46.285Z,990.30
2023-03-27T08:54:46.162Z,990.25
2023-03-27T08:55:46.156Z,990.33
2023-03-27T08:56:46.134Z,990.30
2023-03-27T08:57:46.157Z,990.32
2023-03-27T08:58:46.108Z,990.33
2023-03-27T08:59:46.193Z,990.34
2023-03-27T09:00:46.105Z,990.27
2023-03-27T09:01:46.190Z,990.44
2023-03-27T09:02:46.145Z,990.29
2023-03-27T09:03:46.197Z,990.32
2023-03-27T09:04:46.058Z,990.30
2023-03-27T09:05:46.050Z,990.31
2023-03-27T09:06:46.696Z,990.34
2023-03-27T09:07:46.052Z,990.31
2023-03-27T09:08:46.051Z,990.35
2023-03-27T09:09:46.417Z,990.37
2023-03-27T09:10:45.984Z,990.32
2023-03-27T09:11:45.991Z,990.36
2023-03-27T09:12:45.971Z,990.40
2023-03-27T09:13:45.999Z,990.30
2023-03-27T09:14:45.957Z,990.33
2023-03-27T09:15:46.054Z,990.34
2023-03-27T09:16:46.753Z,990.39
2023-03-27T09:17:46.007Z,990.33
2023-03-27T09:18:45.946Z,990.34
2023-03-27T09:19:45.931Z,990.35
2023-03-27T09:20:48.416Z,990.36
2023-03-27T09:21:45.933Z,990.37
2023-03-27T09:22:45.861Z,990.36
2023-03-27T09:23:45.852Z,990.37
2023-03-27T09:24:45.860Z,990.38
2023-03-27T09:25:45.900Z,990.45
2023-03-27T09:26:47.604Z,990.38
2023-03-27T09:27:46.838Z,990.42
2023-03-27T09:28:47.934Z,990.38
2023-03-27T09:29:45.853Z,990.45
2023-03-27T09:30:45.980Z,990.39
2023-03-27T09:31:45.794Z,990.37
2023-03-27T09:32:45.806Z,990.48
2023-03-27T09:33:45.761Z,990.59
2023-03-27T09:34:45.722Z,990.54
2023-03-27T09:35:45.824Z,990.61
2023-03-27T09:36:45.775Z,990.64
2023-03-27T09:37:45.717Z,990.66
2023-03-27T09:38:45.688Z,990.64
2023-03-27T09:39:45.689Z,990.65
2023-03-27T09:40:45.685Z,990.66
2023-03-27T09:41:45.670Z,990.65
2023-03-27T09:42:45.683Z,990.70
2023-03-27T09:43:45.675Z,990.73
2023-03-27T09:44:45.664Z,990.72
2023-03-27T09:45:45.668Z,990.76
2023-03-27T09:46:45.681Z,990.81
2023-03-27T09:47:45.686Z,990.81
2023-03-27T09:48:45.624Z,990.86
2023-03-27T09:49:45.606Z,990.85
2023-03-27T09:50:45.585Z,990.88
2023-03-27T09:51:45.665Z,990.95
2023-03-27T09:52:45.545Z,991.02
2023-03-27T09:53:45.576Z,991.03
2023-03-27T09:54:45.546Z,991.07
2023-03-27T09:55:45.603Z,991.07
2023-03-27T09:56:45.589Z,991.09
2023-03-27T09:57:45.549Z,991.08
2023-03-27T09:58:46.453Z,991.09
2023-03-27T09:59:46.495Z,991.11
2023-03-27T10:00:45.513Z,991.18
2023-03-27T10:01:45.508Z,991.25
2023-03-27T10:02:45.554Z,991.26
2023-03-27T10:03:45.477Z,991.24
2023-03-27T10:04:45.448Z,991.23
2023-03-27T10:05:45.503Z,991.09
2023-03-27T10:06:45.458Z,991.09
2023-03-27T10:07:45.411Z,991.03
2023-03-27T10:08:45.499Z,991.03
2023-03-27T10:09:45.419Z,991.02
2023-03-27T10:10:45.369Z,991.02
2023-03-27T10:11:45.440Z,991.08
2023-03-27T10:12:45.349Z,991.01
2023-03-27T10:13:45.351Z,991.08
2023-03-27T10:14:45.324Z,991.06
2023-03-27T10:15:45.345Z,991.04
2023-03-27T10:16:45.424Z,991.03
2023-03-27T10:17:45.334Z,991.01
2023-03-27T10:18:45.290Z,991.01
2023-03-27T10:19:45.287Z,991.00
2023-03-27T10:20:45.274Z,990.99
2023-03-27T10:21:45.321Z,991.04
2023-03-27T10:22:45.235Z,991.07
2023-03-27T10:23:45.344Z,991.11
2023-03-27T10:24:47.003Z,991.08
2023-03-27T10:25:45.224Z,991.11
2023-03-27T10:26:45.331Z,991.25
2023-03-27T10:27:45.214Z,991.27
2023-03-27T10:28:45.221Z,991.46
2023-03-27T10:29:45.167Z,991.30
2023-03-27T10:30:45.217Z,991.31
2023-03-27T10:31:45.166Z,991.31
2023-03-27T10:32:45.298Z,991.27
2023-03-27T10:33:45.153Z,991.26
2023-03-27T10:34:45.184Z,991.25
2023-03-27T10:35:45.139Z,991.29
2023-03-27T10:36:45.140Z,991.30
2023-03-27T10:37:49.781Z,991.21
2023-03-27T10:38:46.866Z,991.26
2023-03-27T10:39:46.031Z,991.20
2023-03-27T10:40:45.108Z,991.20
2023-03-27T10:41:45.076Z,991.16
2023-03-27T10:42:45.140Z,991.18
2023-03-27T10:43:45.055Z,991.16
2023-03-27T10:44:45.080Z,991.17
2023-03-27T10:45:46.023Z,991.13
2023-03-27T10:46:45.079Z,991.12
2023-03-27T10:47:45.010Z,991.16
2023-03-27T10:48:45.008Z,991.09
2023-03-27T10:49:44.962Z,991.14
2023-03-27T10:50:44.970Z,991.14
2023-03-27T10:51:46.800Z,991.15
2023-03-27T10:52:44.999Z,991.15
2023-03-27T10:53:45.019Z,991.16
2023-03-27T10:54:44.960Z,991.12
2023-03-27T10:55:44.967Z,991.10
2023-03-27T10:56:45.026Z,991.09
2023-03-27T10:57:44.956Z,991.08
2023-03-27T10:58:44.907Z,991.09
2023-03-27T10:59:44.904Z,991.09
2023-03-27T11:00:44.865Z,991.02
2023-03-27T11:01:46.657Z,991.05
2023-03-27T11:02:44.927Z,991.13
2023-03-27T11:03:44.835Z,990.98
2023-03-27T11:04:44.935Z,991.00
2023-03-27T11:05:44.878Z,990.96
2023-03-27T11:06:44.856Z,991.00
2023-03-27T11:07:44.761Z,991.04
2023-03-27T11:08:44.825Z,991.05
2023-03-27T11:09:44.757Z,991.05
2023-03-27T11:10:44.774Z,991.19
2023-03-27T11:11:44.771Z,991.18
2023-03-27T11:12:44.720Z,991.32
2023-03-27T11:13:44.711Z,991.47
2023-03-27T11:14:44.743Z,991.46
2023-03-27T11:15:44.688Z,991.64
2023-03-27T11:16:44.746Z,991.64
2023-03-27T11:18:41.446Z,991.77
2023-03-27T11:19:41.441Z,991.82
2023-03-27T11:20:41.427Z,991.80
2023-03-27T11:21:41.420Z,991.78
2023-03-27T11:22:41.400Z,991.78
2023-03-27T11:23:41.431Z,991.75
2023-03-27T11:24:41.374Z,991.71
2023-03-27T11:25:41.386Z,991.72
2023-03-27T11:26:41.350Z,991.66
2023-03-27T11:27:41.444Z,991.68
2023-03-27T11:28:41.340Z,991.63
2023-03-27T11:29:41.351Z,991.63
2023-03-27T11:30:41.304Z,991.63
2023-03-27T11:31:41.407Z,991.60
2023-03-27T11:32:41.340Z,991.56
2023-03-27T11:33:41.286Z,991.54
2023-03-27T11:34:41.266Z,991.58
2023-03-27T11:35:41.291Z,991.59
2023-03-27T11:36:41.256Z,991.58
2023-03-27T11:37:41.277Z,991.61
2023-03-27T11:38:46.486Z,991.55
2023-03-27T11:39:41.229Z,991.57
2023-03-27T11:40:41.219Z,991.56
2023-03-27T11:41:41.221Z,991.53
2023-03-27T11:42:41.194Z,991.59
2023-03-27T11:43:41.206Z,991.59
2023-03-27T11:44:41.180Z,991.56
2023-03-27T11:45:41.181Z,991.64
2023-03-27T11:46:41.194Z,991.55
2023-03-27T11:47:41.194Z,991.58
2023-03-27T11:48:41.120Z,991.60
2023-03-27T11:49:41.183Z,991.55
2023-03-27T11:50:41.180Z,991.54
2023-03-27T11:51:41.122Z,991.53
2023-03-27T11:52:41.118Z,991.63
2023-03-27T11:53:41.090Z,991.60
2023-03-27T11:54:41.101Z,991.67
2023-03-27T11:55:41.096Z,991.61
2023-03-27T11:56:41.200Z,991.69
2023-03-27T11:57:41.056Z,991.60
2023-03-27T11:58:41.701Z,991.65
2023-03-27T11:59:41.045Z,991.63
2023-03-27T12:00:41.076Z,991.51
2023-03-27T12:01:41.052Z,991.59
2023-03-27T12:02:41.077Z,991.53
2023-03-27T12:03:41.063Z,991.61
2023-03-27T12:04:40.996Z,991.61
2023-03-27T12:05:41.008Z,991.59
2023-03-27T12:06:40.944Z,991.59
2023-03-27T12:07:47.356Z,991.56
2023-03-27T12:08:43.044Z,991.56
2023-03-27T12:09:41.534Z,991.55
2023-03-27T12:10:40.914Z,991.54
2023-03-27T12:11:40.906Z,991.50
2023-03-27T12:12:40.881Z,991.53
2023-03-27T12:13:42.728Z,991.54
2023-03-27T12:14:41.335Z,991.50
2023-03-27T12:15:40.891Z,991.54
2023-03-27T12:16:40.904Z,991.52
2023-03-27T12:17:41.559Z,991.47
2023-03-27T12:18:45.289Z,991.41
2023-03-27T12:19:41.811Z,991.43
2023-03-27T12:20:51.782Z,991.45
2023-03-27T12:21:41.819Z,991.42
2023-03-27T12:22:40.788Z,991.43
2023-03-27T12:23:40.781Z,991.41
2023-03-27T12:24:50.037Z,991.43
2023-03-27T12:25:41.806Z,991.36
2023-03-27T12:26:40.765Z,991.39
2023-03-27T12:27:40.722Z,991.39
2023-03-27T12:28:41.294Z,991.40
2023-03-27T12:29:40.718Z,991.40
2023-03-27T12:30:40.681Z,991.40
2023-03-27T12:31:40.758Z,991.40